Jade — 9HVS8 — position and weather

sailwx.info

Track history (hours):
 
Tides and Currents Weather Stations Pressure Air Temp Water Temp Dewpoint Dewpoint Depression Visibility Wind Speed Wind Dir Waves Ship Positions

Jade

Last reported at 2014-Nov-01 11:31 UTC. Time now 2014-Nov-01 13:28 UTC.
Position N 44°25' E 008°50'.

Length 175 m; draft 9 m.

Type: Ship (hazmat cat C). MMSI: 256491000.

Date/timePositionNaut miles runAvg speedWind from/ knotsBaromVisibWave heightAir tempDewpointWater temp
2014-Nov-01 11:31N 44°25' E 008°50'0 0.0
2014-Nov-01 10:31N 44°25' E 008°50'0 0.0
2014-Nov-01 09:25N 44°25' E 008°50'0 0.0
2014-Nov-01 08:25N 44°25' E 008°50'0 0.0
2014-Nov-01 07:28N 44°25' E 008°50'0 0.0
2014-Nov-01 06:31N 44°25' E 008°50'0 0.0
2014-Nov-01 02:28N 44°25' E 008°50'0 0.0
2014-Nov-01 01:28N 44°25' E 008°50'0 0.0
2014-Nov-01 00:31N 44°25' E 008°50'0 0.0
2014-Oct-31 23:28N 44°25' E 008°50'0 0.0
2014-Oct-31 22:28N 44°25' E 008°50'0 0.0
2014-Oct-31 20:13N 44°25' E 008°50'0 0.0
2014-Oct-31 19:25N 44°25' E 008°50'0 0.0
2014-Oct-31 18:25N 44°25' E 008°50'0 0.0
2014-Oct-31 15:28N 44°25' E 008°50'0 0.0
2014-Oct-31 11:25N 44°25' E 008°50'0 0.0
2014-Oct-31 10:31N 44°25' E 008°50'0 0.0
2014-Oct-31 09:34N 44°25' E 008°50'5 4.6
2014-Oct-31 08:33N 44°21' E 008°47'6 6.4
2014-Oct-31 07:33N 44°15' E 008°46'3 2.6
2014-Oct-31 06:33N 44°12' E 008°46'0 0.2
2014-Oct-31 05:33N 44°12' E 008°46'0 0.3
2014-Oct-31 04:33N 44°13' E 008°46'0 0.3
2014-Oct-31 03:33N 44°13' E 008°47'0 0.3
2014-Oct-31 02:33N 44°13' E 008°47'0 0.3
2014-Oct-31 01:33N 44°13' E 008°47'0 0.2
2014-Oct-31 00:33N 44°13' E 008°48'0 0.2
2014-Oct-30 23:34N 44°13' E 008°48'0 0.2
2014-Oct-30 22:33N 44°13' E 008°48'0 0.2
2014-Oct-30 21:33N 44°13' E 008°48'0 0.2
2014-Oct-30 20:33N 44°12' E 008°49'0 0.2
2014-Oct-30 19:33N 44°12' E 008°49'0 0.2
2014-Oct-30 18:33N 44°12' E 008°49'0 0.3
2014-Oct-30 17:33N 44°12' E 008°49'1 0.6
2014-Oct-30 16:34N 44°12' E 008°50'1 0.7
2014-Oct-30 15:34N 44°12' E 008°49'8 8.2
2014-Oct-30 14:33N 44°21' E 008°48'2 1.7
2014-Oct-30 13:33N 44°22' E 008°47'9 8.7
2014-Oct-30 12:31N 44°13' E 008°46'6 5.8
2014-Oct-30 11:33N 44°07' E 008°46'0 0.2
2014-Oct-30 10:34N 44°07' E 008°46'0 0.2
2014-Oct-30 09:33N 44°08' E 008°46'0 0.1
2014-Oct-30 08:33N 44°07' E 008°46'0 0.1
2014-Oct-30 07:33N 44°07' E 008°46'0 0.1
2014-Oct-30 06:33N 44°07' E 008°46'0 0.2
2014-Oct-30 05:33N 44°08' E 008°46'0 0.2
2014-Oct-30 04:33N 44°08' E 008°46'0 0.2
2014-Oct-30 03:33N 44°08' E 008°45'0 0.2
2014-Oct-30 02:33N 44°08' E 008°45'0 0.1
2014-Oct-30 01:33N 44°08' E 008°45'0 0.1
2014-Oct-30 00:33N 44°08' E 008°45'0 0.1
2014-Oct-29 23:34N 44°08' E 008°45'0 0.2
2014-Oct-29 22:34N 44°08' E 008°45'0 0.3
2014-Oct-29 21:33N 44°08' E 008°45'0 0.3
2014-Oct-29 20:33N 44°09' E 008°45'0 0.4
2014-Oct-29 19:33N 44°09' E 008°45'1 0.5
2014-Oct-29 18:33N 44°09' E 008°46'0 0.4
2014-Oct-29 17:33N 44°09' E 008°47'0 0.4
2014-Oct-29 16:33N 44°09' E 008°47'1 0.5
2014-Oct-29 15:33N 44°08' E 008°48'1 0.5
2014-Oct-29 14:33N 44°08' E 008°48'1 1.0
2014-Oct-29 13:34N 44°08' E 008°49'4 4.3
2014-Oct-29 12:32N 44°13' E 008°48'0 0.3
2014-Oct-29 11:33N 44°12' E 008°48'0 0.2
2014-Oct-29 10:33N 44°12' E 008°48'0 0.3
2014-Oct-29 09:33N 44°12' E 008°47'5 4.9
2014-Oct-29 08:33N 44°17' E 008°50'4 4.0
2014-Oct-29 07:33N 44°13' E 008°53'1514.6
2014-Oct-29 06:33N 43°59' E 008°57'1414.3
2014-Oct-29 05:34N 43°45' E 009°03'1413.9
2014-Oct-29 04:33N 43°34' E 009°13'1413.8
2014-Oct-29 03:33N 43°22' E 009°23'1414.4
2014-Oct-29 02:33N 43°10' E 009°34'  
2014-Oct-26 11:30N 37°30' E 024°02'1414.7
2014-Oct-26 10:33N 37°41' E 024°11'1714.4
2014-Oct-26 09:24N 37°52' E 024°28'267 9.6
2014-Oct-25 05:29N 40°54' E 028°40'1212.6
2014-Oct-25 04:33N 40°57' E 028°56'27712.0
2014-Oct-24 05:30N 42°20' E 034°49'6013.6
2014-Oct-24 01:07N 42°14' E 036°09'  
Track history (hours):
 
Tides and Currents Weather Stations Pressure Air Temp Water Temp Dewpoint Dewpoint Depression Visibility Wind Speed Wind Dir Waves Ship Positions

Jade

Last reported at 2014-Nov-01 11:31 UTC. Time now 2014-Nov-01 13:28 UTC.
Position N 44°25' E 008°50'.

Length 175 m; draft 9 m.

Type: Ship (hazmat cat C). MMSI: 256491000.

Date/timePositionNaut miles runAvg speedWind from/ knotsBaromVisibWave heightAir tempDewpointWater temp
2014-Nov-01 11:31N 44°25' E 008°50'0 0.0
2014-Nov-01 10:31N 44°25' E 008°50'0 0.0
2014-Nov-01 09:25N 44°25' E 008°50'0 0.0
2014-Nov-01 08:25N 44°25' E 008°50'0 0.0
2014-Nov-01 07:28N 44°25' E 008°50'0 0.0
2014-Nov-01 06:31N 44°25' E 008°50'0 0.0
2014-Nov-01 02:28N 44°25' E 008°50'0 0.0
2014-Nov-01 01:28N 44°25' E 008°50'0 0.0
2014-Nov-01 00:31N 44°25' E 008°50'0 0.0
2014-Oct-31 23:28N 44°25' E 008°50'0 0.0
2014-Oct-31 22:28N 44°25' E 008°50'0 0.0
2014-Oct-31 20:13N 44°25' E 008°50'0 0.0
2014-Oct-31 19:25N 44°25' E 008°50'0 0.0
2014-Oct-31 18:25N 44°25' E 008°50'0 0.0
2014-Oct-31 15:28N 44°25' E 008°50'0 0.0
2014-Oct-31 11:25N 44°25' E 008°50'0 0.0
2014-Oct-31 10:31N 44°25' E 008°50'0 0.0
2014-Oct-31 09:34N 44°25' E 008°50'5 4.6
2014-Oct-31 08:33N 44°21' E 008°47'6 6.4
2014-Oct-31 07:33N 44°15' E 008°46'3 2.6
2014-Oct-31 06:33N 44°12' E 008°46'0 0.2
2014-Oct-31 05:33N 44°12' E 008°46'0 0.3
2014-Oct-31 04:33N 44°13' E 008°46'0 0.3
2014-Oct-31 03:33N 44°13' E 008°47'0 0.3
2014-Oct-31 02:33N 44°13' E 008°47'0 0.3
2014-Oct-31 01:33N 44°13' E 008°47'0 0.2
2014-Oct-31 00:33N 44°13' E 008°48'0 0.2
2014-Oct-30 23:34N 44°13' E 008°48'0 0.2
2014-Oct-30 22:33N 44°13' E 008°48'0 0.2
2014-Oct-30 21:33N 44°13' E 008°48'0 0.2
2014-Oct-30 20:33N 44°12' E 008°49'0 0.2
2014-Oct-30 19:33N 44°12' E 008°49'0 0.2
2014-Oct-30 18:33N 44°12' E 008°49'0 0.3
2014-Oct-30 17:33N 44°12' E 008°49'1 0.6
2014-Oct-30 16:34N 44°12' E 008°50'1 0.7
2014-Oct-30 15:34N 44°12' E 008°49'8 8.2
2014-Oct-30 14:33N 44°21' E 008°48'2 1.7
2014-Oct-30 13:33N 44°22' E 008°47'9 8.7
2014-Oct-30 12:31N 44°13' E 008°46'6 5.8
2014-Oct-30 11:33N 44°07' E 008°46'0 0.2
2014-Oct-30 10:34N 44°07' E 008°46'0 0.2
2014-Oct-30 09:33N 44°08' E 008°46'0 0.1
2014-Oct-30 08:33N 44°07' E 008°46'0 0.1
2014-Oct-30 07:33N 44°07' E 008°46'0 0.1
2014-Oct-30 06:33N 44°07' E 008°46'0 0.2
2014-Oct-30 05:33N 44°08' E 008°46'0 0.2
2014-Oct-30 04:33N 44°08' E 008°46'0 0.2
2014-Oct-30 03:33N 44°08' E 008°45'0 0.2
2014-Oct-30 02:33N 44°08' E 008°45'0 0.1
2014-Oct-30 01:33N 44°08' E 008°45'0 0.1
2014-Oct-30 00:33N 44°08' E 008°45'0 0.1
2014-Oct-29 23:34N 44°08' E 008°45'0 0.2
2014-Oct-29 22:34N 44°08' E 008°45'0 0.3
2014-Oct-29 21:33N 44°08' E 008°45'0 0.3
2014-Oct-29 20:33N 44°09' E 008°45'0 0.4
2014-Oct-29 19:33N 44°09' E 008°45'1 0.5
2014-Oct-29 18:33N 44°09' E 008°46'0 0.4
2014-Oct-29 17:33N 44°09' E 008°47'0 0.4
2014-Oct-29 16:33N 44°09' E 008°47'1 0.5
2014-Oct-29 15:33N 44°08' E 008°48'1 0.5
2014-Oct-29 14:33N 44°08' E 008°48'1 1.0
2014-Oct-29 13:34N 44°08' E 008°49'4 4.3
2014-Oct-29 12:32N 44°13' E 008°48'0 0.3
2014-Oct-29 11:33N 44°12' E 008°48'0 0.2
2014-Oct-29 10:33N 44°12' E 008°48'0 0.3
2014-Oct-29 09:33N 44°12' E 008°47'5 4.9
2014-Oct-29 08:33N 44°17' E 008°50'4 4.0
2014-Oct-29 07:33N 44°13' E 008°53'1514.6
2014-Oct-29 06:33N 43°59' E 008°57'1414.3
2014-Oct-29 05:34N 43°45' E 009°03'1413.9
2014-Oct-29 04:33N 43°34' E 009°13'1413.8
2014-Oct-29 03:33N 43°22' E 009°23'1414.4
2014-Oct-29 02:33N 43°10' E 009°34'  
2014-Oct-26 11:30N 37°30' E 024°02'1414.7
2014-Oct-26 10:33N 37°41' E 024°11'1714.4
2014-Oct-26 09:24N 37°52' E 024°28'267 9.6
2014-Oct-25 05:29N 40°54' E 028°40'1212.6
2014-Oct-25 04:33N 40°57' E 028°56'27712.0
2014-Oct-24 05:30N 42°20' E 034°49'6013.6
2014-Oct-24 01:07N 42°14' E 036°09'  

Dump ship's entire track history